createdAt,value
2018-04-26T00:01:22.567Z,89.20
2018-04-26T00:03:50.005Z,89.10
2018-04-26T00:06:18.213Z,88.80
2018-04-26T00:08:45.648Z,88.80
2018-04-26T00:11:13.104Z,88.60
2018-04-26T00:13:40.539Z,88.70
2018-04-26T00:16:08.170Z,89.80
2018-04-26T00:18:35.603Z,89.40
2018-04-26T00:21:03.053Z,88.80
2018-04-26T00:23:30.479Z,89.00
2018-04-26T00:25:58.738Z,88.00
2018-04-26T00:28:26.177Z,87.90
2018-04-26T00:30:53.660Z,88.70
2018-04-26T00:33:21.098Z,88.80
2018-04-26T00:35:48.559Z,88.20
2018-04-26T00:38:15.991Z,87.80
2018-04-26T00:40:43.440Z,87.30
2018-04-26T00:43:10.890Z,87.70
2018-04-26T00:45:38.337Z,86.70
2018-04-26T00:48:06.599Z,86.70
2018-04-26T00:50:33.969Z,86.60
2018-04-26T00:53:01.399Z,86.00
2018-04-26T00:55:29.669Z,87.40
2018-04-26T00:57:58.660Z,87.30
2018-04-26T01:00:26.083Z,87.30
2018-04-26T01:02:53.536Z,87.20
2018-04-26T01:05:20.975Z,86.70
2018-04-26T01:07:48.481Z,86.50
2018-04-26T01:10:15.921Z,86.30
2018-04-26T01:12:44.231Z,85.30
2018-04-26T01:15:11.654Z,85.90
2018-04-26T01:17:39.088Z,85.40
2018-04-26T01:20:06.576Z,85.80
2018-04-26T01:22:34.720Z,84.80
2018-04-26T01:25:02.188Z,84.80
2018-04-26T01:27:29.596Z,85.00
2018-04-26T01:29:57.812Z,86.60
2018-04-26T01:32:25.239Z,86.50
2018-04-26T01:34:53.450Z,86.10
2018-04-26T01:37:32.792Z,86.00
2018-04-26T01:40:00.223Z,86.30
2018-04-26T01:42:27.653Z,87.10
2018-04-26T01:44:55.085Z,87.00
2018-04-26T01:47:22.512Z,88.40
2018-04-26T01:49:50.769Z,87.10
2018-04-26T01:52:18.195Z,86.90
2018-04-26T01:54:45.628Z,87.10
2018-04-26T01:57:13.255Z,87.10
2018-04-26T01:59:40.691Z,86.90
2018-04-26T02:02:09.293Z,86.60
2018-04-26T02:04:36.723Z,87.30
2018-04-26T02:07:04.937Z,87.60
2018-04-26T02:09:32.400Z,87.40
2018-04-26T02:11:59.823Z,86.70
2018-04-26T02:14:28.040Z,85.90
2018-04-26T02:16:55.468Z,85.90
2018-04-26T02:19:22.909Z,88.10
2018-04-26T02:21:51.108Z,87.70
2018-04-26T02:24:18.555Z,87.60
2018-04-26T02:26:46.017Z,88.10
2018-04-26T02:29:13.439Z,87.60
2018-04-26T02:31:40.879Z,87.90
2018-04-26T02:34:09.248Z,87.20
2018-04-26T02:36:36.685Z,87.10
2018-04-26T02:39:04.126Z,88.10
2018-04-26T02:41:31.567Z,89.20
2018-04-26T02:43:59.882Z,88.40
2018-04-26T02:46:27.320Z,88.40
2018-04-26T02:48:54.748Z,90.10
2018-04-26T02:51:22.943Z,90.30
2018-04-26T02:53:50.389Z,90.30
2018-04-26T02:56:18.587Z,91.10
2018-04-26T02:58:46.014Z,91.10
2018-04-26T03:01:14.240Z,90.60
2018-04-26T03:03:41.671Z,90.60
2018-04-26T03:06:09.152Z,91.00
2018-04-26T03:08:36.559Z,91.50
2018-04-26T03:11:04.759Z,91.50
2018-04-26T03:13:32.216Z,91.40
2018-04-26T03:15:59.650Z,91.30
2018-04-26T03:18:27.857Z,91.40
2018-04-26T03:20:55.282Z,91.40
2018-04-26T03:23:22.732Z,91.90
2018-04-26T03:25:50.157Z,91.50
2018-04-26T03:28:17.603Z,91.60
2018-04-26T03:30:45.919Z,91.70
2018-04-26T03:33:13.360Z,92.20
2018-04-26T03:35:40.791Z,91.70
2018-04-26T03:38:08.615Z,91.20
2018-04-26T03:40:36.031Z,91.40
2018-04-26T03:43:03.468Z,92.30
2018-04-26T03:45:30.888Z,92.20
2018-04-26T03:47:59.095Z,93.10
2018-04-26T03:50:26.545Z,93.10
2018-04-26T03:52:54.844Z,93.50
2018-04-26T03:55:22.299Z,93.50
2018-04-26T03:57:49.847Z,94.00
2018-04-26T04:00:29.107Z,93.70
2018-04-26T04:03:08.399Z,93.80
2018-04-26T04:05:41.863Z,93.80
2018-04-26T04:08:10.059Z,94.20
2018-04-26T04:10:38.255Z,94.90
2018-04-26T04:13:05.727Z,94.90
2018-04-26T04:15:33.147Z,94.80
2018-04-26T04:18:01.384Z,95.10
2018-04-26T04:20:28.804Z,95.00
2018-04-26T04:22:56.256Z,94.90
2018-04-26T04:25:23.684Z,95.20
2018-04-26T04:27:51.108Z,95.10
2018-04-26T04:30:18.556Z,94.60
2018-04-26T04:32:45.999Z,94.60
2018-04-26T04:35:13.446Z,94.50
2018-04-26T04:37:41.629Z,94.40
2018-04-26T04:40:09.079Z,94.40
2018-04-26T04:42:37.258Z,94.70
2018-04-26T04:45:04.717Z,94.60
2018-04-26T04:47:32.143Z,94.30
2018-04-26T04:50:00.349Z,94.50
2018-04-26T04:52:27.794Z,94.50
2018-04-26T04:54:55.993Z,94.20
2018-04-26T04:57:23.410Z,94.10
2018-04-26T04:59:51.616Z,94.30
2018-04-26T05:02:19.056Z,94.30
2018-04-26T05:04:47.277Z,94.50
2018-04-26T05:07:14.725Z,94.50
2018-04-26T05:09:42.144Z,94.60
2018-04-26T05:12:10.368Z,94.50
2018-04-26T05:14:37.800Z,94.50
2018-04-26T05:17:05.263Z,94.50
2018-04-26T05:19:32.729Z,94.80
2018-04-26T05:22:00.181Z,95.50
2018-04-26T05:24:27.615Z,96.10
2018-04-26T05:26:55.045Z,96.60
2018-04-26T05:29:23.243Z,96.30
2018-04-26T05:31:50.711Z,96.10
2018-04-26T05:34:19.056Z,97.40
2018-04-26T05:36:46.503Z,97.80
2018-04-26T05:39:13.928Z,97.50
2018-04-26T05:41:41.374Z,96.30
2018-04-26T05:44:09.630Z,96.30
2018-04-26T05:46:37.064Z,96.10
2018-04-26T05:49:05.259Z,97.50
2018-04-26T05:51:33.467Z,97.70
2018-04-26T05:54:00.908Z,97.70
2018-04-26T05:56:28.342Z,97.50
2018-04-26T05:58:56.574Z,98.70
2018-04-26T06:01:24.163Z,98.70
2018-04-26T06:03:51.651Z,98.30
2018-04-26T06:06:19.059Z,99.10
2018-04-26T06:08:46.488Z,99.60
2018-04-26T06:11:14.010Z,99.70
2018-04-26T06:13:41.363Z,99.10
2018-04-26T06:16:08.871Z,99.50
2018-04-26T06:18:36.324Z,99.00
2018-04-26T06:21:03.753Z,98.80
2018-04-26T06:23:31.272Z,97.60
2018-04-26T06:25:58.703Z,99.10
2018-04-26T06:28:26.147Z,98.70
2018-04-26T06:30:53.604Z,98.70
2018-04-26T06:33:21.014Z,98.10
2018-04-26T06:35:49.224Z,98.20
2018-04-26T06:38:16.663Z,98.10
2018-04-26T06:40:44.887Z,97.60
2018-04-26T06:43:12.323Z,97.60
2018-04-26T06:45:39.769Z,97.30
2018-04-26T06:48:07.199Z,96.90
2018-04-26T06:50:35.399Z,97.70
2018-04-26T06:53:02.849Z,97.70
2018-04-26T06:55:30.282Z,97.20
2018-04-26T06:57:57.746Z,97.30
2018-04-26T07:00:26.014Z,96.80
2018-04-26T07:02:53.375Z,96.80
2018-04-26T07:05:21.575Z,96.90
2018-04-26T07:07:49.007Z,96.90
2018-04-26T07:10:16.457Z,96.60
2018-04-26T07:12:43.879Z,95.30
2018-04-26T07:15:11.338Z,95.40
2018-04-26T07:17:38.766Z,95.50
2018-04-26T07:20:06.199Z,95.30
2018-04-26T07:22:34.398Z,95.70
2018-04-26T07:25:01.833Z,95.60
2018-04-26T07:27:30.055Z,96.60
2018-04-26T07:29:57.516Z,96.60
2018-04-26T07:32:24.968Z,95.70
2018-04-26T07:34:52.413Z,94.70
2018-04-26T07:37:19.824Z,93.70
2018-04-26T07:39:47.441Z,94.20
2018-04-26T07:42:14.903Z,94.70
2018-04-26T07:44:42.343Z,96.10
2018-04-26T07:47:09.778Z,96.20
2018-04-26T07:49:37.967Z,95.30
2018-04-26T07:52:05.403Z,95.20
2018-04-26T07:54:33.619Z,93.40
2018-04-26T07:57:01.073Z,93.30
2018-04-26T07:59:28.491Z,94.20
2018-04-26T08:01:56.691Z,93.50
2018-04-26T08:04:24.117Z,93.50
2018-04-26T08:06:52.339Z,93.40
2018-04-26T08:09:19.755Z,93.20
2018-04-26T08:11:48.041Z,93.90
2018-04-26T08:14:15.457Z,94.30
2018-04-26T08:16:42.875Z,94.80
2018-04-26T08:19:10.309Z,94.70
2018-04-26T08:21:38.536Z,92.90
2018-04-26T08:24:05.958Z,92.80
2018-04-26T08:26:33.443Z,92.10
2018-04-26T08:29:00.876Z,91.90
2018-04-26T08:31:28.333Z,93.00
2018-04-26T08:33:56.216Z,91.00
2018-04-26T08:36:23.890Z,88.30
2018-04-26T08:38:51.314Z,89.20
2018-04-26T08:41:18.761Z,90.20
2018-04-26T08:43:46.946Z,88.50
2018-04-26T08:46:14.380Z,88.50
2018-04-26T08:48:42.690Z,90.20
2018-04-26T08:51:10.213Z,90.10
2018-04-26T08:53:38.639Z,90.80
2018-04-26T08:56:06.077Z,90.70
2018-04-26T08:58:33.520Z,89.80
2018-04-26T09:01:01.720Z,88.80
2018-04-26T09:03:29.151Z,88.60
2018-04-26T09:05:57.396Z,92.30
2018-04-26T09:08:24.823Z,92.30
2018-04-26T09:10:52.242Z,92.50
2018-04-26T09:13:20.452Z,92.80
2018-04-26T09:15:47.900Z,92.70
2018-04-26T09:18:15.328Z,91.30
2018-04-26T09:20:43.543Z,90.30
2018-04-26T09:23:10.983Z,90.20
2018-04-26T09:25:38.416Z,87.40
2018-04-26T09:28:05.845Z,84.90
2018-04-26T09:30:33.373Z,85.10
2018-04-26T09:33:00.800Z,80.30
2018-04-26T09:35:29.030Z,78.80
2018-04-26T09:37:56.463Z,78.70
2018-04-26T09:40:23.883Z,78.50
2018-04-26T09:42:52.101Z,75.50
2018-04-26T09:45:20.311Z,75.40
2018-04-26T09:47:47.768Z,79.10
2018-04-26T09:50:15.209Z,81.00
2018-04-26T09:52:42.632Z,76.20
2018-04-26T09:55:10.063Z,74.90
2018-04-26T09:57:38.263Z,73.70
2018-04-26T10:00:05.696Z,73.60
2018-04-26T10:02:48.777Z,74.90
2018-04-26T10:05:16.216Z,74.90
2018-04-26T10:07:43.742Z,76.40
2018-04-26T10:10:11.939Z,84.00
2018-04-26T10:12:39.421Z,83.90
2018-04-26T10:15:06.929Z,91.10
2018-04-26T10:17:34.295Z,92.10
2018-04-26T10:20:02.497Z,92.80
2018-04-26T10:22:29.954Z,94.40
2018-04-26T10:24:57.410Z,91.90
2018-04-26T10:27:24.838Z,83.50
2018-04-26T10:29:53.053Z,87.60
2018-04-26T10:32:20.481Z,87.40
2018-04-26T10:34:47.916Z,88.70
2018-04-26T10:37:16.115Z,92.20
2018-04-26T10:39:43.560Z,92.10
2018-04-26T10:42:11.786Z,92.30
2018-04-26T10:44:39.224Z,92.30
2018-04-26T10:47:06.674Z,92.50
2018-04-26T10:49:34.123Z,93.00
2018-04-26T10:52:01.566Z,91.70
2018-04-26T10:54:29.760Z,89.40
2018-04-26T10:56:57.227Z,89.20
2018-04-26T10:59:24.655Z,88.00
2018-04-26T11:01:52.860Z,85.60
2018-04-26T11:04:20.287Z,85.50
2018-04-26T11:06:48.499Z,87.80
2018-04-26T11:09:15.950Z,87.80
2018-04-26T11:11:43.372Z,84.60
2018-04-26T11:14:11.613Z,86.00
2018-04-26T11:16:39.070Z,85.90
2018-04-26T11:19:06.507Z,86.80
2018-04-26T11:21:33.956Z,83.60
2018-04-26T11:24:02.081Z,87.20
2018-04-26T11:26:29.528Z,90.20
2018-04-26T11:28:57.047Z,91.40
2018-04-26T11:31:24.477Z,90.20
2018-04-26T11:33:52.689Z,85.00
2018-04-26T11:36:20.103Z,84.80
2018-04-26T11:38:48.310Z,83.30
2018-04-26T11:41:15.753Z,83.30
2018-04-26T11:43:43.183Z,78.90
2018-04-26T11:46:11.382Z,80.60
2018-04-26T11:51:07.599Z,74.20
2018-04-26T11:53:35.045Z,57.00
2018-04-26T11:56:02.500Z,51.60
2018-04-26T11:58:30.063Z,51.20
2018-04-26T12:00:57.517Z,48.40
2018-04-26T12:03:24.953Z,51.90
2018-04-26T12:05:52.388Z,52.60
2018-04-26T12:08:19.814Z,54.00
2018-04-26T12:10:48.027Z,56.20
2018-04-26T12:13:15.509Z,57.20
2018-04-26T12:15:43.293Z,59.20
2018-04-26T12:18:10.727Z,58.60
2018-04-26T12:20:38.169Z,62.20
2018-04-26T12:23:05.598Z,60.20
2018-04-26T12:25:33.437Z,61.60
2018-04-26T12:28:01.264Z,59.70
2018-04-26T12:30:28.704Z,60.10
2018-04-26T12:32:56.906Z,54.60
2018-04-26T12:35:24.754Z,50.60
2018-04-26T12:37:52.189Z,48.80
2018-04-26T12:40:19.617Z,48.70
2018-04-26T12:42:47.062Z,46.30
2018-04-26T12:45:14.586Z,45.90
2018-04-26T12:47:42.807Z,46.20
2018-04-26T12:50:10.264Z,50.30
2018-04-26T12:52:37.679Z,54.40
2018-04-26T12:55:06.284Z,53.50
2018-04-26T12:57:34.510Z,55.30
2018-04-26T13:00:02.711Z,56.70
2018-04-26T13:02:30.155Z,61.90
2018-04-26T13:04:58.442Z,63.00
2018-04-26T13:07:25.787Z,61.60
2018-04-26T13:09:53.228Z,67.00
2018-04-26T13:12:21.447Z,63.20
2018-04-26T13:14:48.903Z,63.00
2018-04-26T13:17:16.371Z,51.40
2018-04-26T13:19:44.921Z,51.30
2018-04-26T13:22:12.364Z,47.40
2018-04-26T13:24:40.944Z,53.70
2018-04-26T13:27:10.079Z,53.20
2018-04-26T13:29:37.919Z,53.80
2018-04-26T13:32:05.356Z,55.00
2018-04-26T13:34:33.566Z,69.40
2018-04-26T13:37:00.997Z,69.40
2018-04-26T13:39:29.226Z,75.30
2018-04-26T13:41:56.668Z,75.20
2018-04-26T13:44:24.103Z,71.90
2018-04-26T13:46:51.551Z,69.80
2018-04-26T13:49:20.073Z,64.00
2018-04-26T13:51:47.519Z,59.90
2018-04-26T13:54:15.205Z,56.60
2018-04-26T13:56:42.638Z,52.30
2018-04-26T13:59:10.158Z,51.90
2018-04-26T14:01:37.545Z,52.50
2018-04-26T14:04:05.005Z,50.40
2018-04-26T14:06:32.452Z,52.20
2018-04-26T14:08:59.922Z,52.80
2018-04-26T14:11:28.097Z,59.70
2018-04-26T14:13:55.539Z,55.80
2018-04-26T14:16:23.089Z,56.40
2018-04-26T14:18:51.293Z,57.60
2018-04-26T14:21:19.583Z,62.10
2018-04-26T14:23:47.035Z,62.60
2018-04-26T14:26:14.467Z,62.00
2018-04-26T14:28:41.903Z,64.10
2018-04-26T14:31:09.951Z,63.90
2018-04-26T14:33:38.686Z,59.50
2018-04-26T14:36:06.113Z,58.30
2018-04-26T14:38:34.358Z,52.80
2018-04-26T14:41:01.797Z,52.70
2018-04-26T14:43:29.274Z,54.10
2018-04-26T14:45:56.666Z,53.10
2018-04-26T14:48:24.899Z,51.40
2018-04-26T14:50:52.343Z,51.40
2018-04-26T14:53:19.784Z,51.00
2018-04-26T14:55:47.214Z,51.20
2018-04-26T14:58:15.420Z,47.10
2018-04-26T15:00:42.856Z,47.10
2018-04-26T15:03:10.304Z,48.40
2018-04-26T15:05:38.503Z,49.40
2018-04-26T15:08:05.947Z,49.40
2018-04-26T15:10:33.378Z,49.60
2018-04-26T15:13:00.823Z,52.40
2018-04-26T15:15:28.324Z,50.40
2018-04-26T15:17:55.804Z,52.00
2018-04-26T15:20:23.221Z,53.10
2018-04-26T15:22:51.816Z,54.30
2018-04-26T15:25:20.902Z,54.70
2018-04-26T15:27:49.147Z,55.20
2018-04-26T15:30:16.569Z,54.40
2018-04-26T15:32:43.995Z,55.30
2018-04-26T15:35:12.202Z,55.10
2018-04-26T15:37:39.645Z,55.00
2018-04-26T15:40:07.828Z,58.90
2018-04-26T15:42:35.281Z,60.00
2018-04-26T15:45:03.470Z,59.80
2018-04-26T15:47:30.900Z,59.80
2018-04-26T15:49:58.823Z,71.90
2018-04-26T15:52:44.596Z,82.70
2018-04-26T15:55:23.844Z,86.60
2018-04-26T16:01:01.588Z,86.00
2018-04-26T16:03:41.694Z,86.30
2018-04-26T16:06:32.734Z,87.70
2018-04-26T16:09:12.794Z,89.40
2018-04-26T16:11:53.041Z,92.50
2018-04-26T16:14:35.011Z,89.90
2018-04-26T16:17:31.795Z,90.80
2018-04-26T16:20:16.895Z,86.50
2018-04-26T16:23:02.772Z,86.70
2018-04-26T16:25:42.069Z,84.40
2018-04-26T16:28:27.813Z,83.00
2018-04-26T16:31:13.951Z,84.10
2018-04-26T16:33:53.303Z,83.00
2018-04-26T16:36:32.719Z,84.10
2018-04-26T16:39:14.764Z,81.80
2018-04-26T16:41:42.975Z,77.90
2018-04-26T16:44:10.428Z,77.80
2018-04-26T16:46:37.884Z,79.90
2018-04-26T16:49:05.425Z,80.10
2018-04-26T16:51:32.837Z,84.70
2018-04-26T16:54:00.290Z,80.70
2018-04-26T16:56:27.729Z,83.00
2018-04-26T16:58:55.220Z,76.40
2018-04-26T17:01:22.639Z,77.50
2018-04-26T17:03:50.123Z,77.20
2018-04-26T17:06:17.883Z,78.00
2018-04-26T17:08:45.355Z,77.80
2018-04-26T17:11:12.799Z,74.80
2018-04-26T17:13:40.260Z,73.50
2018-04-26T17:16:07.703Z,76.10
2018-04-26T17:18:35.162Z,76.20
2018-04-26T17:21:02.974Z,73.10
2018-04-26T17:23:30.388Z,78.60
2018-04-26T17:25:59.311Z,74.70
2018-04-26T17:28:26.759Z,75.50
2018-04-26T17:30:54.205Z,75.00
2018-04-26T17:33:21.653Z,75.70
2018-04-26T17:35:49.091Z,75.40
2018-04-26T17:38:16.536Z,70.50
2018-04-26T17:40:44.039Z,70.30
2018-04-26T17:43:11.495Z,67.60
2018-04-26T17:45:38.959Z,68.20
2018-04-26T17:48:06.430Z,71.40
2018-04-26T17:50:33.827Z,71.70
2018-04-26T17:53:01.280Z,69.70
2018-04-26T17:55:29.485Z,72.90
2018-04-26T17:57:56.911Z,72.80
2018-04-26T18:00:24.349Z,71.70
2018-04-26T18:02:51.788Z,70.70
2018-04-26T18:05:19.227Z,71.80
2018-04-26T18:07:46.667Z,71.20
2018-04-26T18:10:14.147Z,74.20
2018-04-26T18:12:41.584Z,87.50
2018-04-26T18:15:09.060Z,92.80
2018-04-26T18:17:36.492Z,93.40
2018-04-26T18:20:08.577Z,95.20
2018-04-26T18:22:31.432Z,95.00
2018-04-26T18:24:58.872Z,94.50
2018-04-26T18:27:27.446Z,91.00
2018-04-26T18:29:54.927Z,91.00
2018-04-26T18:32:22.390Z,91.50
2018-04-26T18:34:49.818Z,93.70
2018-04-26T18:37:17.272Z,94.30
2018-04-26T18:39:44.703Z,94.60
2018-04-26T18:42:12.912Z,93.30
2018-04-26T18:44:40.350Z,93.30
2018-04-26T18:47:08.578Z,92.30
2018-04-26T18:49:36.024Z,92.40
2018-04-26T18:52:03.455Z,92.80
2018-04-26T18:54:30.916Z,93.20
2018-04-26T18:56:58.388Z,93.70
2018-04-26T18:59:26.555Z,94.00
2018-04-26T19:01:53.983Z,94.00
2018-04-26T19:04:22.200Z,94.30
2018-04-26T19:06:49.635Z,94.30
2018-04-26T19:09:17.064Z,94.30
2018-04-26T19:11:45.363Z,94.40
2018-04-26T19:14:13.642Z,94.40
2018-04-26T19:16:41.003Z,94.40
2018-04-26T19:19:08.443Z,94.20
2018-04-26T19:21:36.717Z,93.60
2018-04-26T19:24:04.921Z,94.00
2018-04-26T19:26:32.346Z,94.00
2018-04-26T19:29:00.593Z,94.20
2018-04-26T19:31:28.068Z,94.20
2018-04-26T19:33:56.316Z,94.10
2018-04-26T19:36:23.731Z,94.00
2018-04-26T19:38:51.175Z,94.00
2018-04-26T19:41:19.432Z,93.60
2018-04-26T19:43:46.889Z,93.60
2018-04-26T19:46:14.312Z,93.20
2018-04-26T19:48:42.856Z,93.40
2018-04-26T19:51:11.355Z,93.10
2018-04-26T19:53:38.795Z,93.10
2018-04-26T19:56:06.226Z,92.90
2018-04-26T19:58:34.433Z,92.20
2018-04-26T20:01:01.891Z,92.40
2018-04-26T20:03:29.358Z,92.70
2018-04-26T20:05:56.792Z,92.10
2018-04-26T20:08:25.039Z,92.30
2018-04-26T20:10:52.467Z,92.30
2018-04-26T20:13:19.958Z,92.20
2018-04-26T20:15:47.388Z,92.20
2018-04-26T20:18:14.819Z,92.30
2018-04-26T20:20:42.259Z,92.70
2018-04-26T20:23:11.432Z,92.50
2018-04-26T20:25:38.872Z,92.50
2018-04-26T20:28:06.298Z,92.70
2018-04-26T20:30:33.755Z,92.70
2018-04-26T20:33:01.192Z,92.90
2018-04-26T20:35:28.628Z,92.50
2018-04-26T20:37:56.839Z,92.50
2018-04-26T20:40:24.274Z,92.40
2018-04-26T20:42:52.492Z,92.60
2018-04-26T20:45:19.938Z,92.50
2018-04-26T20:47:47.414Z,92.60
2018-04-26T20:50:14.987Z,92.60
2018-04-26T20:52:42.403Z,93.00
2018-04-26T20:55:10.768Z,93.10
2018-04-26T20:57:38.239Z,93.10
2018-04-26T21:00:05.709Z,93.10
2018-04-26T21:02:33.182Z,93.20
2018-04-26T21:05:00.612Z,93.30
2018-04-26T21:07:28.043Z,93.40
2018-04-26T21:09:56.258Z,93.50
2018-04-26T21:12:23.696Z,93.50
2018-04-26T21:14:51.133Z,93.10
2018-04-26T21:17:19.333Z,93.10
2018-04-26T21:19:46.776Z,93.10
2018-04-26T21:22:14.232Z,92.90
2018-04-26T21:24:42.471Z,93.10
2018-04-26T21:27:10.831Z,93.10
2018-04-26T21:29:38.279Z,93.20
2018-04-26T21:32:05.736Z,93.50
2018-04-26T21:34:33.162Z,93.60
2018-04-26T21:37:01.375Z,93.70
2018-04-26T21:39:28.820Z,93.60
2018-04-26T21:41:56.247Z,93.60
2018-04-26T21:44:24.479Z,93.50
2018-04-26T21:46:51.915Z,93.50
2018-04-26T21:49:18.873Z,93.40
2018-04-26T21:51:52.054Z,93.50
2018-04-26T21:54:25.076Z,93.50
2018-04-26T21:56:58.363Z,93.70
2018-04-26T21:59:31.472Z,93.80
2018-04-26T22:02:04.699Z,93.70
2018-04-26T22:07:29.151Z,93.80
2018-04-26T22:09:56.581Z,93.50
2018-04-26T22:12:24.064Z,93.10
2018-04-26T22:14:51.494Z,92.90
2018-04-26T22:17:18.952Z,92.80
2018-04-26T22:19:46.386Z,92.80
2018-04-26T22:22:13.833Z,93.20
2018-04-26T22:24:42.050Z,93.20
2018-04-26T22:27:09.506Z,93.20
2018-04-26T22:29:36.915Z,93.30
2018-04-26T22:32:04.350Z,93.60
2018-04-26T22:34:31.776Z,93.10
2018-04-26T22:36:59.228Z,93.40
2018-04-26T22:39:26.678Z,93.50
2018-04-26T22:41:54.120Z,93.30
2018-04-26T22:44:21.554Z,93.40
2018-04-26T22:46:49.771Z,93.60
2018-04-26T22:49:17.191Z,93.50
2018-04-26T22:51:45.388Z,93.60
2018-04-26T22:54:12.815Z,93.60
2018-04-26T22:56:41.016Z,94.10
2018-04-26T22:59:08.447Z,93.70
2018-04-26T23:01:35.886Z,93.60
2018-04-26T23:04:03.308Z,93.70
2018-04-26T23:06:30.748Z,93.80
2018-04-26T23:08:58.187Z,93.80
2018-04-26T23:11:26.471Z,94.00
2018-04-26T23:13:54.681Z,94.00
2018-04-26T23:16:22.118Z,94.30
2018-04-26T23:18:51.456Z,94.20
2018-04-26T23:21:18.916Z,94.30
2018-04-26T23:23:47.118Z,94.70
2018-04-26T23:26:14.544Z,94.50
2018-04-26T23:28:41.997Z,94.30
2018-04-26T23:31:09.415Z,94.30
2018-04-26T23:33:36.844Z,94.20
2018-04-26T23:36:04.276Z,94.00
2018-04-26T23:38:32.621Z,93.80
2018-04-26T23:41:00.078Z,93.90
2018-04-26T23:43:27.520Z,93.70
2018-04-26T23:45:55.716Z,93.80
2018-04-26T23:48:23.164Z,93.70
2018-04-26T23:50:50.601Z,93.60
2018-04-26T23:53:19.796Z,93.60
2018-04-26T23:55:48.038Z,93.40
2018-04-26T23:58:15.471Z,93.40
